Time;durP1;ratioP1;P1;durP2;ratioP2;P2;SDS_P1;SDS_P2;PMS_P1;PMS_P2;Temp;Humidity;BMP_temperature;BMP_pressure;BME280_temperature;BME280_humidity;BME280_pressure;Samples;Min_cycle;Max_cycle;Signal;HPM_P1;HPM_P2
2023/10/10 00:02:20;;;;;;;;;;;;;;;4.74;76.78;99033.34;4952803;28;19930;-74
2023/10/10 00:04:58;;;;;;;;;;;;;;;4.77;76.91;99040.22;5004854;28;19925;-73
2023/10/10 00:07:27;;;;;;;;;;;;;;;4.75;76.32;99040.19;4942569;29;19919;-73
2023/10/10 00:09:56;;;;;;;;;;;;;;;4.74;77.18;99046.25;4940993;29;19945;-74
2023/10/10 00:12:29;;;;;;;;;;;;;;;4.73;76.84;99044.53;4923738;28;19918;-74
2023/10/10 00:14:57;;;;;;;;;;;;;;;4.74;76.99;99035.94;4989673;28;20404;-74
2023/10/10 00:17:34;;;;;;;;;;;;;;;4.75;76.80;99045.34;4926829;29;19926;-75
2023/10/10 00:22:58;;;;;;;;;;;;;;;4.67;76.37;99037.59;4918967;29;21450;-75
2023/10/10 00:25:30;;;;;;;;;;;;;;;4.65;77.48;99041.03;5018145;28;20202;-74
2023/10/10 00:28:00;;;;;;;;;;;;;;;4.65;77.07;99049.63;4939396;29;20656;-73
2023/10/10 00:30:34;;;;;;;;;;;;;;;4.70;77.01;99044.50;4921154;29;19923;-74
2023/10/10 00:33:03;;;;;;;;;;;;;;;4.76;76.77;99046.22;5020643;28;20273;-74
2023/10/10 00:35:31;;;;;;;;;;;;;;;4.75;76.90;99042.78;5022750;28;19923;-74
2023/10/10 00:37:59;;;;;;;;;;;;;;;4.77;77.00;99053.94;5007342;28;19991;-75
2023/10/10 00:40:30;;;;;;;;;;;;;;;4.74;76.79;99051.41;5005575;28;20378;-76
2023/10/10 00:42:59;;;;;;;;;;;;;;;4.74;77.08;99046.25;4921772;28;20301;-75
2023/10/10 00:45:33;;;;;;;;;;;;;;;4.73;77.26;99049.69;4931941;28;19978;-75
2023/10/10 00:48:00;;;;;;;;;;;;;;;4.77;77.21;99050.53;5018553;28;19941;-75
2023/10/10 00:50:27;;;;;;;;;;;;;;;4.75;76.78;99053.09;4937762;28;19986;-75
2023/10/10 00:53:00;;;;;;;;;;;;;;;4.73;77.45;99059.09;5019370;28;19973;-73
2023/10/10 00:55:33;;;;;;;;;;;;;;;4.73;76.60;99054.81;5005786;28;19919;-74
2023/10/10 00:58:01;;;;;;;;;;;;;;;4.73;77.27;99049.69;5022424;28;19977;-75
2023/10/10 01:00:30;;;;;;;;;;;;;;;4.75;76.87;99052.25;5002709;28;20479;-76
2023/10/10 01:02:57;;;;;;;;;;;;;;;4.66;76.79;99053.91;4926677;29;20010;-77
2023/10/10 01:05:39;;;;;;;;;;;;;;;4.65;77.75;99064.25;5022652;28;20063;-75
2023/10/10 01:08:07;;;;;;;;;;;;;;;4.62;77.44;99062.53;5000580;28;20021;-74
2023/10/10 01:10:43;;;;;;;;;;;;;;;4.62;77.40;99071.97;5013875;28;19919;-74
2023/10/10 01:13:10;;;;;;;;;;;;;;;4.56;76.75;99072.81;4995966;28;19919;-74
2023/10/10 01:15:37;;;;;;;;;;;;;;;4.58;77.08;99063.38;5019345;28;19973;-75
2023/10/10 01:18:03;;;;;;;;;;;;;;;4.61;77.40;99080.53;5021617;28;19923;-74
2023/10/10 01:20:45;;;;;;;;;;;;;;;4.62;77.12;99084.84;4921564;29;19929;-74
2023/10/10 01:23:26;;;;;;;;;;;;;;;4.60;77.38;99078.81;5007324;28;19933;-76
2023/10/10 01:25:52;;;;;;;;;;;;;;;4.53;76.70;99081.38;4916726;29;20001;-75
2023/10/10 01:33:35;;;;;;;;;;;;;;;4.57;77.61;99084.84;5002956;28;19923;-76
2023/10/10 01:36:21;;;;;;;;;;;;;;;4.65;77.23;99083.13;5011134;28;19933;-75
2023/10/10 01:39:08;;;;;;;;;;;;;;;4.67;76.88;99081.41;5027760;28;19919;-77
2023/10/10 01:41:38;;;;;;;;;;;;;;;4.62;77.12;99080.56;5008268;28;19982;-75
2023/10/10 01:44:17;;;;;;;;;;;;;;;4.52;77.12;99074.47;5019024;28;20100;-74
2023/10/10 01:46:51;;;;;;;;;;;;;;;4.49;76.48;99081.34;4941415;28;19919;-75
2023/10/10 01:49:29;;;;;;;;;;;;;;;4.50;76.92;99081.38;4940101;28;19934;-73
2023/10/10 01:51:56;;;;;;;;;;;;;;;4.51;77.64;99082.22;5021064;28;19926;-75
2023/10/10 01:54:23;;;;;;;;;;;;;;;4.57;76.96;99082.25;5011516;28;19922;-74
2023/10/10 01:56:54;;;;;;;;;;;;;;;4.59;77.29;99085.69;5031383;28;19938;-72
2023/10/10 01:59:24;;;;;;;;;;;;;;;4.59;77.56;99084.81;5019273;28;19919;-74
2023/10/10 02:01:52;;;;;;;;;;;;;;;4.64;77.15;99093.44;5037323;28;19919;-73
2023/10/10 02:04:27;;;;;;;;;;;;;;;4.65;77.48;99088.28;5016128;28;20037;-73
2023/10/10 02:06:57;;;;;;;;;;;;;;;4.59;77.01;99093.44;5050298;28;19922;-77
2023/10/10 02:11:54;;;;;;;;;;;;;;;4.68;77.30;99092.59;5027337;28;19972;-78
2023/10/10 02:14:25;;;;;;;;;;;;;;;4.72;77.52;99099.50;5031240;28;19918;-79
2023/10/10 02:17:22;;;;;;;;;;;;;;;4.74;76.67;99092.63;4954149;28;19949;-78
2023/10/10 02:19:59;;;;;;;;;;;;;;;4.79;77.18;99101.22;5033400;28;19919;-76
2023/10/10 02:22:49;;;;;;;;;;;;;;;4.82;77.47;99098.66;5021326;28;19924;-76
2023/10/10 02:27:57;;;;;;;;;;;;;;;4.77;76.91;99107.25;4954387;29;19918;-75
2023/10/10 02:30:35;;;;;;;;;;;;;;;4.76;77.42;99102.94;4950599;28;19926;-75
2023/10/10 02:35:54;;;;;;;;;;;;;;;4.75;77.16;99101.22;5031511;28;20379;-75
2023/10/10 02:38:39;;;;;;;;;;;;;;;4.73;76.75;99106.38;5030151;28;20021;-76
2023/10/10 02:43:54;;;;;;;;;;;;;;;4.79;76.88;99111.53;4952828;28;19918;-76
2023/10/10 02:46:33;;;;;;;;;;;;;;;4.82;77.23;99114.13;5034039;28;19954;-74
2023/10/10 02:49:12;;;;;;;;;;;;;;;4.88;77.12;99109.84;4968591;28;20413;-76
2023/10/10 02:51:43;;;;;;;;;;;;;;;4.90;77.15;99113.31;5033817;28;19918;-76
2023/10/10 02:56:58;;;;;;;;;;;;;;;4.88;76.44;99112.44;5027330;28;19923;-74
2023/10/10 02:59:30;;;;;;;;;;;;;;;4.85;77.19;99110.72;4954143;29;20100;-75
2023/10/10 03:01:57;;;;;;;;;;;;;;;4.82;76.80;99118.44;4950286;29;19922;-74
2023/10/10 03:07:19;;;;;;;;;;;;;;;4.81;77.38;99122.72;4950391;29;19918;-74
2023/10/10 03:10:15;;;;;;;;;;;;;;;4.86;77.41;99127.03;5049152;28;19933;-75
2023/10/10 03:12:49;;;;;;;;;;;;;;;4.86;77.39;99121.88;5017746;28;19925;-75
2023/10/10 03:15:27;;;;;;;;;;;;;;;4.87;77.86;99118.44;5031259;28;19922;-76
2023/10/10 03:25:54;;;;;;;;;;;;;;;5.02;77.26;99130.53;5031546;28;19925;-77
2023/10/10 03:28:29;;;;;;;;;;;;;;;5.00;77.25;99125.34;5052758;28;19925;-77
2023/10/10 03:31:08;;;;;;;;;;;;;;;4.94;76.94;99127.94;5016569;28;20664;-78
2023/10/10 05:23:31;;;;;;;;;;;;;;;5.16;77.05;99239.75;5053503;28;19921;-77
2023/10/10 05:25:59;;;;;;;;;;;;;;;5.13;78.25;99248.34;5040592;28;19916;-73
2023/10/10 05:28:30;;;;;;;;;;;;;;;5.16;77.13;99251.81;5052329;28;19986;-71
2023/10/10 05:30:57;;;;;;;;;;;;;;;5.24;76.79;99243.25;5050503;28;19927;-72
2023/10/10 05:33:26;;;;;;;;;;;;;;;5.34;77.21;99249.28;5052189;28;19916;-75
2023/10/10 05:35:57;;;;;;;;;;;;;;;5.37;77.36;99254.47;5055183;28;19917;-75
2023/10/10 05:38:39;;;;;;;;;;;;;;;5.43;77.57;99248.47;5055360;28;19924;-73
2023/10/10 05:41:10;;;;;;;;;;;;;;;5.37;77.16;99261.31;5040172;28;19949;-74
2023/10/10 05:43:36;;;;;;;;;;;;;;;5.35;76.81;99260.47;5019951;28;20022;-75
2023/10/10 05:46:03;;;;;;;;;;;;;;;5.33;77.33;99257.88;5054384;28;19952;-73
2023/10/10 05:48:35;;;;;;;;;;;;;;;5.37;77.11;99259.63;5035889;28;19935;-73
2023/10/10 05:51:03;;;;;;;;;;;;;;;5.36;76.93;99268.22;5051407;28;19918;-72
2023/10/10 05:53:33;;;;;;;;;;;;;;;5.39;77.43;99263.06;4953855;29;20292;-76
2023/10/10 05:56:16;;;;;;;;;;;;;;;5.36;77.17;99268.22;4954142;28;19968;-76
2023/10/10 05:58:47;;;;;;;;;;;;;;;5.40;76.86;99272.53;5036884;28;19922;-74
2023/10/10 06:01:13;;;;;;;;;;;;;;;5.40;77.10;99279.41;4933299;28;19923;-72
2023/10/10 06:03:51;;;;;;;;;;;;;;;5.46;76.37;99278.56;5038103;28;19922;-74
2023/10/10 06:06:46;;;;;;;;;;;;;;;5.49;76.58;99279.47;4960925;28;19929;-74
2023/10/10 06:09:24;;;;;;;;;;;;;;;5.53;76.24;99281.16;5036833;28;20017;-72
2023/10/10 06:12:00;;;;;;;;;;;;;;;5.55;77.08;99287.19;5052114;28;19922;-75
2023/10/10 06:14:31;;;;;;;;;;;;;;;5.62;77.03;99294.97;5024531;28;19918;-74
2023/10/10 06:16:59;;;;;;;;;;;;;;;5.69;77.05;99297.56;4954679;28;19932;-77
2023/10/10 06:19:26;;;;;;;;;;;;;;;5.84;76.85;99295.91;5053695;28;19918;-75
2023/10/10 06:22:02;;;;;;;;;;;;;;;5.85;76.28;99295.00;5027464;28;19968;-76
2023/10/10 06:24:28;;;;;;;;;;;;;;;5.83;76.26;99291.59;4954081;28;19918;-75
2023/10/10 06:27:00;;;;;;;;;;;;;;;5.82;77.02;99297.63;4959675;28;19918;-75
2023/10/10 06:29:29;;;;;;;;;;;;;;;5.75;75.85;99299.28;5009972;28;19918;-75
2023/10/10 06:31:57;;;;;;;;;;;;;;;5.69;76.53;99304.47;5055590;28;19918;-72
2023/10/10 06:34:46;;;;;;;;;;;;;;;;;;;;;
2023/10/10 06:37:13;;;;;;;;;;;;;;;5.78;76.57;99308.78;5024288;28;19932;-76
2023/10/10 06:39:54;;;;;;;;;;;;;;;5.81;76.44;99316.56;5033146;28;19925;-76
2023/10/10 06:42:27;;;;;;;;;;;;;;;5.91;75.90;99315.69;4970066;28;19922;-78
2023/10/10 06:45:22;;;;;;;;;;;;;;;5.89;76.27;99314.84;5044934;28;19898;-80
2023/10/10 06:47:54;;;;;;;;;;;;;;;5.78;76.11;99321.69;5049014;28;19929;-78
2023/10/10 06:50:42;;;;;;;;;;;;;;;;;;;;;
2023/10/10 06:53:22;;;;;;;;;;;;;;;5.84;76.46;99330.31;5041289;28;19918;-76
2023/10/10 06:55:49;;;;;;;;;;;;;;;5.89;75.71;99325.16;5024858;28;19941;-79
2023/10/10 06:58:19;;;;;;;;;;;;;;;5.85;76.22;99329.47;5044150;28;19942;-79
2023/10/10 07:00:45;;;;;;;;;;;;;;;5.81;75.46;99338.06;5037431;28;19926;-74
2023/10/10 07:03:11;;;;;;;;;;;;;;;5.81;76.20;99344.97;5041788;28;19919;-75
2023/10/10 07:05:43;;;;;;;;;;;;;;;5.84;76.62;99342.38;5033968;28;19940;-78
2023/10/10 07:08:24;;;;;;;;;;;;;;;5.92;76.36;99338.09;5064522;28;20007;-77
2023/10/10 07:10:56;;;;;;;;;;;;;;;6.02;76.78;99347.63;4966994;28;19929;-78
2023/10/10 07:13:29;;;;;;;;;;;;;;;6.06;76.33;99348.50;4959143;28;19986;-79
2023/10/10 07:16:10;;;;;;;;;;;;;;;6.11;76.43;99349.38;5036777;28;20005;-81
2023/10/10 07:18:47;;;;;;;;;;;;;;;6.12;75.92;99350.22;5032775;28;19969;-84
2023/10/10 07:21:30;;;;;;;;;;;;;;;6.10;75.77;99349.34;5047930;28;19945;-79
2023/10/10 07:24:13;;;;;;;;;;;;;;;6.13;76.81;99352.81;5033343;28;21159;-76
2023/10/10 07:26:41;;;;;;;;;;;;;;;6.15;76.56;99356.28;5041567;28;19962;-75
2023/10/10 07:32:27;;;;;;;;;;;;;;;6.25;75.99;99359.72;5040686;28;19989;-78
2023/10/10 07:34:56;;;;;;;;;;;;;;;6.21;76.36;99354.53;4970256;28;19941;-79
2023/10/10 07:37:29;;;;;;;;;;;;;;;6.27;76.29;99365.78;4963588;28;19930;-74
2023/10/10 07:39:55;;;;;;;;;;;;;;;6.37;76.19;99364.06;4999771;28;19930;-76
2023/10/10 07:42:27;;;;;;;;;;;;;;;6.37;76.19;99368.34;5046798;28;19924;-77
2023/10/10 07:45:13;;;;;;;;;;;;;;;6.44;76.57;99364.91;5053702;28;19899;-81
2023/10/10 07:51:05;;;;;;;;;;;;;;;6.48;76.10;99371.81;4968876;28;19919;-86
2023/10/10 07:54:38;;;;;;;;;;;;;;;;;;;;;
2023/10/10 07:57:26;;;;;;;;;;;;;;;6.53;76.72;99377.84;5042024;28;19922;-80
2023/10/10 07:59:57;;;;;;;;;;;;;;;6.50;76.32;99375.28;5052182;28;19967;-85
2023/10/10 08:02:24;;;;;;;;;;;;;;;6.55;76.29;99385.63;5060536;28;19941;-79
2023/10/10 08:05:01;;;;;;;;;;;;;;;6.51;76.50;99376.13;5055213;28;19985;-78
2023/10/10 08:07:29;;;;;;;;;;;;;;;6.47;76.24;99380.44;5030605;28;19923;-79
2023/10/10 08:12:47;;;;;;;;;;;;;;;6.22;76.08;99392.44;4969665;28;19956;-83
2023/10/10 08:15:19;;;;;;;;;;;;;;;6.20;75.86;99391.56;5052932;28;19928;-75
2023/10/10 08:17:52;;;;;;;;;;;;;;;6.21;75.63;99389.00;4970861;28;19922;-82
2023/10/10 08:23:11;;;;;;;;;;;;;;;6.35;76.05;99403.66;5076507;28;19979;-81
2023/10/10 08:25:40;;;;;;;;;;;;;;;6.40;76.21;99402.81;5050878;28;20399;-79
2023/10/10 08:28:11;;;;;;;;;;;;;;;6.43;76.34;99412.31;5038315;28;19947;-83
2023/10/10 08:30:37;;;;;;;;;;;;;;;6.47;76.28;99412.31;5045418;28;19922;-82
2023/10/10 08:33:06;;;;;;;;;;;;;;;6.61;76.92;99414.06;5057201;28;19940;-79
2023/10/10 08:35:42;;;;;;;;;;;;;;;6.55;75.56;99416.63;4947444;28;19918;-77
2023/10/10 08:38:20;;;;;;;;;;;;;;;6.53;76.03;99414.03;5071589;28;19924;-78
2023/10/10 08:40:56;;;;;;;;;;;;;;;6.55;75.92;99417.47;4969952;28;19904;-76
2023/10/10 08:43:26;;;;;;;;;;;;;;;6.58;76.01;99420.06;5066005;28;19926;-76
2023/10/10 08:45:54;;;;;;;;;;;;;;;6.56;75.47;99426.13;5027600;28;19924;-74
2023/10/10 08:48:26;;;;;;;;;;;;;;;6.54;75.76;99427.84;5057751;28;19949;-75
2023/10/10 08:50:55;;;;;;;;;;;;;;;6.55;75.32;99426.97;5025564;28;19979;-72
2023/10/10 08:53:24;;;;;;;;;;;;;;;6.51;75.76;99428.66;5031156;28;19947;-76
2023/10/10 08:55:57;;;;;;;;;;;;;;;6.51;76.12;99436.44;4969868;28;20288;-75
2023/10/10 08:58:25;;;;;;;;;;;;;;;6.56;76.11;99436.47;4964354;28;19964;-76
2023/10/10 09:00:51;;;;;;;;;;;;;;;6.58;76.16;99434.75;5031779;28;19972;-75
2023/10/10 09:03:17;;;;;;;;;;;;;;;6.50;75.53;99437.31;4979534;28;19923;-75
2023/10/10 09:05:47;;;;;;;;;;;;;;;6.60;76.21;99443.38;4962158;28;19941;-76
2023/10/10 09:08:27;;;;;;;;;;;;;;;6.74;75.77;99438.19;5042345;28;20147;-74
2023/10/10 09:10:56;;;;;;;;;;;;;;;6.80;75.66;99451.13;5046064;28;20006;-74
2023/10/10 09:13:31;;;;;;;;;;;;;;;6.84;75.87;99452.88;5044295;28;19929;-74
2023/10/10 09:15:57;;;;;;;;;;;;;;;6.93;75.79;99458.06;5039285;28;19983;-74
2023/10/10 09:18:27;;;;;;;;;;;;;;;7.06;75.60;99453.72;5028865;28;19919;-74
2023/10/10 09:21:18;;;;;;;;;;;;;;;7.11;75.55;99453.75;4955948;28;19972;-74
2023/10/10 09:24:06;;;;;;;;;;;;;;;7.15;75.69;99450.28;5050047;28;20618;-73
2023/10/10 09:26:36;;;;;;;;;;;;;;;7.39;75.93;99451.97;4964893;28;20008;-71
2023/10/10 09:29:28;;;;;;;;;;;;;;;8.18;76.83;99450.03;4964058;28;20038;-77
2023/10/10 09:31:59;;;;;;;;;;;;;;;9.00;75.63;99441.75;5031676;28;20377;-74
2023/10/10 09:34:28;;;;;;;;;;;;;;;9.36;75.94;99415.47;5033904;28;19922;-71
2023/10/10 09:36:59;;;;;;;;;;;;;;;9.91;74.84;99435.66;4964871;28;19927;-73
2023/10/10 09:39:27;;;;;;;;;;;;;;;10.14;74.64;99444.91;4961696;28;20441;-73
2023/10/10 09:44:53;;;;;;;;;;;;;;;11.33;73.36;99439.69;4966791;28;19961;-78
2023/10/10 10:09:19;;;;;;;;;;;;;;;9.74;70.96;99467.00;4959382;28;19918;-77
2023/10/10 10:12:04;;;;;;;;;;;;;;;9.64;71.89;99462.81;4966080;28;19918;-76
2023/10/10 10:14:59;;;;;;;;;;;;;;;9.69;70.75;99474.03;5031617;28;19918;-76
2023/10/10 10:17:47;;;;;;;;;;;;;;;9.60;71.76;99476.69;5016942;28;19930;-78
2023/10/10 10:20:21;;;;;;;;;;;;;;;9.56;71.57;99467.22;5049902;28;19957;-79
2023/10/10 10:22:53;;;;;;;;;;;;;;;9.48;71.83;99472.47;4960805;28;19972;-77
2023/10/10 10:25:28;;;;;;;;;;;;;;;9.39;71.34;99476.03;4962833;28;19922;-77
2023/10/10 10:28:20;;;;;;;;;;;;;;;9.28;71.32;99483.03;5032413;28;19918;-74
2023/10/10 10:30:54;;;;;;;;;;;;;;;9.10;71.24;99481.47;5025865;28;19898;-73
2023/10/10 10:33:22;;;;;;;;;;;;;;;8.99;71.50;99487.59;4958324;28;19940;-76
2023/10/10 10:35:56;;;;;;;;;;;;;;;8.86;71.45;99489.41;5033874;28;19899;-75
2023/10/10 10:38:26;;;;;;;;;;;;;;;8.78;71.38;99491.22;5041834;28;20029;-76
2023/10/10 10:41:07;;;;;;;;;;;;;;;8.54;70.97;99494.81;5046455;28;19961;-75
2023/10/10 10:43:38;;;;;;;;;;;;;;;8.40;71.58;99494.84;5045062;28;19918;-76
2023/10/10 10:46:16;;;;;;;;;;;;;;;8.23;71.26;99502.72;4963857;28;19970;-75
2023/10/10 10:48:47;;;;;;;;;;;;;;;8.15;71.38;99507.94;4963200;28;19968;-76
2023/10/10 10:51:27;;;;;;;;;;;;;;;8.03;71.40;99505.38;5034782;28;19929;-76
2023/10/10 10:54:05;;;;;;;;;;;;;;;8.07;72.05;99507.94;4960946;28;19924;-77
2023/10/10 10:59:13;;;;;;;;;;;;;;;8.41;71.54;99502.63;4965138;28;19918;-76
2023/10/10 11:01:42;;;;;;;;;;;;;;;8.59;72.03;99501.72;5049073;28;20005;-79
2023/10/10 11:04:17;;;;;;;;;;;;;;;8.66;71.60;99510.31;4966453;28;19960;-80
2023/10/10 11:06:50;;;;;;;;;;;;;;;8.88;71.88;99505.00;4973229;28;19918;-75
2023/10/10 11:09:52;;;;;;;;;;;;;;;8.80;71.06;99510.25;5035504;28;19981;-79
2023/10/10 11:12:22;;;;;;;;;;;;;;;8.74;71.55;99516.31;4971080;28;19957;-80
2023/10/10 11:15:37;;;;;;;;;;;;;;;8.76;71.11;99512.84;4972154;28;19933;-83
2023/10/10 11:18:07;;;;;;;;;;;;;;;8.78;71.71;99532.72;5028881;28;19929;-80
2023/10/10 11:21:04;;;;;;;;;;;;;;;8.77;70.61;99520.63;5035300;28;19922;-81
2023/10/10 11:23:41;;;;;;;;;;;;;;;8.65;70.88;99526.75;5047836;28;19922;-80
2023/10/10 11:26:13;;;;;;;;;;;;;;;8.49;70.21;99527.69;5021108;28;20467;-82
2023/10/10 11:28:47;;;;;;;;;;;;;;;8.49;70.85;99531.13;5038471;28;19919;-82
2023/10/10 11:31:29;;;;;;;;;;;;;;;8.55;70.55;99530.25;4977638;28;20008;-80
2023/10/10 11:34:26;;;;;;;;;;;;;;;8.65;70.65;99534.53;5051950;28;19918;-81
2023/10/10 11:37:11;;;;;;;;;;;;;;;8.72;70.52;99532.75;5052150;28;19926;-74
2023/10/10 11:39:46;;;;;;;;;;;;;;;8.68;70.94;99536.22;5056165;28;19922;-80
2023/10/10 11:42:33;;;;;;;;;;;;;;;8.68;71.06;99541.41;4969206;28;19925;-80
2023/10/10 11:45:17;;;;;;;;;;;;;;;8.58;70.15;99544.06;4976754;28;19906;-81
2023/10/10 11:48:15;;;;;;;;;;;;;;;;;;;;;
2023/10/10 11:50:59;;;;;;;;;;;;;;;8.51;70.71;99559.66;5045697;28;19901;-84
2023/10/10 11:53:29;;;;;;;;;;;;;;;8.38;69.95;99561.41;5038236;28;19925;-83
2023/10/10 11:59:20;;;;;;;;;;;;;;;8.27;70.61;99558.88;4937764;29;19938;-83
2023/10/10 12:02:29;;;;;;;;;;;;;;;8.36;70.61;99570.94;4973579;28;19957;-83
2023/10/10 12:05:14;;;;;;;;;;;;;;;8.43;69.97;99564.84;4936574;29;19919;-83
2023/10/10 12:07:45;;;;;;;;;;;;;;;8.34;70.36;99565.72;4999596;28;19930;-79
2023/10/10 12:10:17;;;;;;;;;;;;;;;8.16;70.14;99577.03;4896491;28;19919;-77
2023/10/10 12:12:46;;;;;;;;;;;;;;;7.90;69.84;99572.78;4926651;29;20276;-76
2023/10/10 12:15:19;;;;;;;;;;;;;;;7.70;69.61;99575.38;5006270;28;19930;-75
2023/10/10 12:17:47;;;;;;;;;;;;;;;7.53;70.08;99586.59;4908227;29;19937;-79
2023/10/10 12:20:15;;;;;;;;;;;;;;;7.33;69.86;99583.16;4928309;28;19923;-81
2023/10/10 12:22:41;;;;;;;;;;;;;;;7.25;70.34;99588.31;4929716;29;19963;-83
2023/10/10 12:25:32;;;;;;;;;;;;;;;7.19;70.02;99598.66;4947676;29;19903;-81
2023/10/10 12:28:00;;;;;;;;;;;;;;;7.12;70.06;99600.38;5254313;22;19963;-78
2023/10/10 12:30:27;;;;;;;;;;;;;;;7.09;70.39;99601.22;5074924;28;19900;-79
2023/10/10 12:32:52;;;;;;;;;;;;;;;7.17;70.67;99600.38;5050620;28;19916;-81
2023/10/10 12:35:26;;;;;;;;;;;;;;;7.19;70.66;99599.50;5086053;28;19936;-80
2023/10/10 12:38:01;;;;;;;;;;;;;;;7.16;70.47;99602.13;5080696;28;19920;-73
2023/10/10 12:40:28;;;;;;;;;;;;;;;7.05;70.64;99616.72;5063604;28;19916;-79
2023/10/10 12:42:54;;;;;;;;;;;;;;;6.92;70.85;99616.72;5052495;28;19924;-77
2023/10/10 12:45:21;;;;;;;;;;;;;;;6.83;71.29;99610.66;5052590;28;19928;-79
2023/10/10 12:47:49;;;;;;;;;;;;;;;6.71;70.96;99617.50;5088920;28;19916;-77
2023/10/10 12:50:15;;;;;;;;;;;;;;;6.58;71.46;99620.88;5082329;28;19975;-82
2023/10/10 12:52:56;;;;;;;;;;;;;;;6.52;71.72;99616.53;5088036;28;19916;-81
2023/10/10 12:55:30;;;;;;;;;;;;;;;6.49;71.41;99632.06;5086580;28;19916;-78
2023/10/10 12:58:04;;;;;;;;;;;;;;;6.48;71.71;99625.16;5084774;28;20019;-80
2023/10/10 13:00:37;;;;;;;;;;;;;;;6.41;71.89;99623.38;5090698;28;20300;-78
2023/10/10 13:03:08;;;;;;;;;;;;;;;6.33;71.81;99629.38;5002723;28;19939;-80
2023/10/10 13:05:38;;;;;;;;;;;;;;;6.28;71.36;99643.13;5054660;28;19961;-78
2023/10/10 13:08:06;;;;;;;;;;;;;;;6.18;71.44;99640.47;5061981;28;19918;-75
2023/10/10 13:10:37;;;;;;;;;;;;;;;6.11;71.65;99643.88;5055044;28;20382;-80
2023/10/10 13:13:15;;;;;;;;;;;;;;;6.10;71.88;99641.28;4978897;28;20453;-82
2023/10/10 13:15:54;;;;;;;;;;;;;;;6.10;71.93;99651.59;5061202;28;19924;-83
2023/10/10 13:18:43;;;;;;;;;;;;;;;6.15;72.39;99648.22;5082039;28;19922;-73
2023/10/10 13:21:20;;;;;;;;;;;;;;;6.16;72.09;99656.81;5065438;28;19918;-78
2023/10/10 13:23:54;;;;;;;;;;;;;;;6.11;72.53;99654.22;5055370;28;20405;-77
2023/10/10 13:26:25;;;;;;;;;;;;;;;6.09;72.15;99662.78;5072283;28;19898;-79
2023/10/10 13:28:56;;;;;;;;;;;;;;;6.03;72.59;99669.66;5064767;28;19925;-72
2023/10/10 13:31:29;;;;;;;;;;;;;;;6.10;71.96;99674.88;5082541;28;19982;-79
2023/10/10 13:33:56;;;;;;;;;;;;;;;6.08;72.50;99684.31;5073161;28;19902;-81
2023/10/10 13:39:48;;;;;;;;;;;;;;;6.15;71.67;99689.56;5029007;28;19932;-83
2023/10/10 13:42:14;;;;;;;;;;;;;;;6.11;71.96;99689.50;5008129;28;19949;-79
2023/10/10 13:44:45;;;;;;;;;;;;;;;5.98;71.48;99691.97;4983203;28;19968;-82
2023/10/10 13:47:11;;;;;;;;;;;;;;;5.83;71.53;99694.44;5011607;28;19918;-80
2023/10/10 13:50:13;;;;;;;;;;;;;;;5.78;71.79;99704.72;4977083;28;19960;-83
2023/10/10 13:52:38;;;;;;;;;;;;;;;5.72;71.76;99702.09;4991479;28;19924;-78
2023/10/10 13:55:09;;;;;;;;;;;;;;;5.64;72.54;99704.56;5010048;28;19917;-80
2023/10/10 13:57:38;;;;;;;;;;;;;;;5.59;71.90;99711.44;5010746;28;19922;-81
2023/10/10 14:00:29;;;;;;;;;;;;;;;5.50;72.63;99721.66;5010393;28;19917;-81
2023/10/10 14:03:03;;;;;;;;;;;;;;;5.41;72.40;99725.84;5011717;28;19945;-85
2023/10/10 14:05:59;;;;;;;;;;;;;;;5.27;72.29;99730.00;4995349;28;19922;-79
2023/10/10 14:08:30;;;;;;;;;;;;;;;5.21;72.77;99732.50;4991200;28;19925;-82
2023/10/10 14:11:00;;;;;;;;;;;;;;;5.16;72.81;99734.19;5006434;28;20652;-77
2023/10/10 14:13:27;;;;;;;;;;;;;;;5.06;73.02;99739.22;5007335;28;19961;-80
2023/10/10 14:15:56;;;;;;;;;;;;;;;4.95;72.60;99743.38;4989353;28;20406;-77
2023/10/10 14:18:42;;;;;;;;;;;;;;;4.86;73.09;99743.25;5003120;28;19944;-75
2023/10/10 14:21:09;;;;;;;;;;;;;;;4.81;73.40;99753.50;5003628;28;19976;-75
2023/10/10 14:23:36;;;;;;;;;;;;;;;4.87;73.39;99757.88;5004445;28;19917;-79
2023/10/10 14:26:12;;;;;;;;;;;;;;;4.92;72.94;99758.81;5004473;28;19924;-79
2023/10/10 14:28:39;;;;;;;;;;;;;;;4.89;73.23;99761.34;5007471;28;19918;-76
2023/10/10 14:31:11;;;;;;;;;;;;;;;4.86;72.77;99767.31;4992139;28;19917;-77
2023/10/10 14:33:40;;;;;;;;;;;;;;;4.86;73.15;99779.34;4984442;28;19952;-75
2023/10/10 14:36:12;;;;;;;;;;;;;;;4.83;73.15;99778.47;5004655;28;20020;-76
2023/10/10 14:38:45;;;;;;;;;;;;;;;4.77;72.66;99774.94;4989117;28;19993;-77
2023/10/10 14:41:17;;;;;;;;;;;;;;;4.72;73.74;99785.19;4989023;28;19922;-80
2023/10/10 14:43:51;;;;;;;;;;;;;;;4.66;73.76;99775.63;5007834;28;20308;-80
2023/10/10 14:46:40;;;;;;;;;;;;;;;4.61;73.09;99789.28;4972909;28;19928;-76
2023/10/10 14:49:16;;;;;;;;;;;;;;;4.59;73.47;99788.41;4998651;28;19986;-76
2023/10/10 14:51:52;;;;;;;;;;;;;;;4.67;73.43;99797.13;5003721;28;19917;-79
2023/10/10 14:54:48;;;;;;;;;;;;;;;4.73;73.32;99799.81;4985165;28;19917;-79
2023/10/10 14:57:25;;;;;;;;;;;;;;;4.77;73.41;99804.13;4984657;28;19921;-78
2023/10/10 14:59:55;;;;;;;;;;;;;;;4.82;73.25;99807.66;4988896;28;19922;-78
2023/10/10 15:02:26;;;;;;;;;;;;;;;4.95;73.35;99813.00;4967581;28;20025;-75
2023/10/10 15:04:52;;;;;;;;;;;;;;;4.99;73.85;99819.94;4986749;28;20451;-76
2023/10/10 15:07:18;;;;;;;;;;;;;;;5.04;73.59;99820.00;5000663;28;20407;-76
2023/10/10 15:09:43;;;;;;;;;;;;;;;5.07;73.80;99822.63;4983272;28;19918;-76
2023/10/10 15:12:13;;;;;;;;;;;;;;;5.05;73.05;99832.91;5001235;28;19994;-79
2023/10/10 15:14:39;;;;;;;;;;;;;;;5.03;73.21;99829.44;5001090;28;20418;-74
2023/10/10 15:17:09;;;;;;;;;;;;;;;4.92;72.34;99838.75;5000587;28;20008;-77
2023/10/10 15:19:35;;;;;;;;;;;;;;;4.94;73.38;99843.06;5000741;28;20021;-78
2023/10/10 15:22:01;;;;;;;;;;;;;;;5.05;73.59;99845.81;4983853;28;19917;-77
2023/10/10 15:24:30;;;;;;;;;;;;;;;5.13;73.40;99857.13;4984646;28;19925;-76
2023/10/10 15:26:56;;;;;;;;;;;;;;;5.17;73.47;99849.44;5001578;28;20316;-74
2023/10/10 15:29:26;;;;;;;;;;;;;;;5.24;73.72;99858.97;5003980;28;19924;-79
2023/10/10 15:31:56;;;;;;;;;;;;;;;5.30;73.61;99861.63;4966265;28;19929;-76
2023/10/10 15:34:23;;;;;;;;;;;;;;;5.33;74.03;99865.97;5002931;28;19917;-77
2023/10/10 15:36:54;;;;;;;;;;;;;;;5.34;73.17;99863.41;4975667;28;19921;-76
2023/10/10 15:39:23;;;;;;;;;;;;;;;5.33;72.97;99872.00;5424532;22;19992;-79
2023/10/10 15:41:49;;;;;;;;;;;;;;;5.34;73.33;99873.75;4972573;28;19921;-74
2023/10/10 15:44:15;;;;;;;;;;;;;;;5.40;73.74;99872.94;5009832;28;19917;-76
2023/10/10 15:46:44;;;;;;;;;;;;;;;5.45;73.84;99878.16;5006006;28;19923;-74
2023/10/10 15:49:12;;;;;;;;;;;;;;;5.40;73.95;99889.31;4989077;28;19952;-76
2023/10/10 15:51:41;;;;;;;;;;;;;;;5.36;73.55;99882.38;4998223;28;19917;-74
2023/10/10 15:54:14;;;;;;;;;;;;;;;5.38;73.54;99891.00;5021933;28;19985;-78
2023/10/10 15:56:48;;;;;;;;;;;;;;;5.37;73.95;99889.28;5003391;28;20367;-77
2023/10/10 15:59:15;;;;;;;;;;;;;;;5.35;73.41;99895.25;5022289;28;19897;-77
2023/10/10 16:01:46;;;;;;;;;;;;;;;5.35;73.01;99898.72;5021022;28;19917;-78
2023/10/10 16:04:17;;;;;;;;;;;;;;;5.34;73.71;99904.72;5026002;28;20047;-78
2023/10/10 16:06:46;;;;;;;;;;;;;;;5.27;72.93;99897.72;5026048;28;20368;-77
2023/10/10 16:09:19;;;;;;;;;;;;;;;5.27;73.56;99908.03;5006977;28;19945;-76
2023/10/10 16:14:51;;;;;;;;;;;;;;;5.30;73.76;99907.25;5024471;28;19956;-77
2023/10/10 16:17:19;;;;;;;;;;;;;;;5.23;73.68;99914.88;5022750;28;19922;-75
2023/10/10 16:20:06;;;;;;;;;;;;;;;5.13;73.47;99908.72;5010475;28;19948;-78
2023/10/10 16:22:40;;;;;;;;;;;;;;;5.03;73.27;99911.13;5023985;28;19917;-79
2023/10/10 16:25:23;;;;;;;;;;;;;;;4.98;73.42;99916.19;5038804;28;19932;-80
2023/10/10 16:27:50;;;;;;;;;;;;;;;4.85;73.01;99924.59;5044287;28;19917;-78
2023/10/10 16:30:16;;;;;;;;;;;;;;;4.74;73.69;99922.72;5030146;28;19917;-79
2023/10/10 16:32:49;;;;;;;;;;;;;;;4.60;74.05;99924.19;5003393;28;19977;-76
2023/10/10 16:35:20;;;;;;;;;;;;;;;4.58;74.21;99936.16;5020769;28;19917;-75
2023/10/10 16:38:05;;;;;;;;;;;;;;;4.59;74.11;99946.50;5008984;28;19933;-77
2023/10/10 16:40:32;;;;;;;;;;;;;;;4.68;74.43;99944.09;4992777;28;20355;-83
2023/10/10 16:43:04;;;;;;;;;;;;;;;4.77;74.47;99943.38;5013142;28;20109;-77
2023/10/10 16:45:32;;;;;;;;;;;;;;;4.86;74.54;99945.22;4997279;28;20016;-78
2023/10/10 16:48:01;;;;;;;;;;;;;;;4.92;74.03;99952.22;5014318;28;19910;-73